Aviation Digital Data Service (ADDS)

Output produced by METARs form (1207 UTC 01 September 2015)
found at http://aviationweather.gov/adds/metars/
 
KGFL 011140Z 0112/0212 16003KT P6SM SKC 
     TEMPO 0112/0113 5SM BR BKN004 
     FM011900 18005KT P6SM FEW050 
     FM020000 00000KT P6SM SKC 
     FM020300 00000KT 3SM BR SKC 
     FM020700 00000KT 1/2SM FG VV002